Terminal Aerodrome Forecast
Issued by NWS Bismarck, ND

Home | Current Version | Previous Version | Graphics & Text | Print | Product List | Glossary On
Versions: 1 2 3 4 5 6 7 8 9 10 11 12 13 14 15 16 17 18 19
000
FTUS43 KBIS 271100
TAFBIS
TAF
KBIS 271120Z 2712/2812 11006KT P6SM SKC
     FM271800 06007KT P6SM SKC
     FM280000 03010KT P6SM SCT080
     FM280600 02013KT P6SM SCT025 BKN040 OVC080=

USA.gov is the U.S. government's official web portal to all federal, state and local government web resources and services.